createdAt,value
2022-12-31T00:00:18.355Z,75.14
2022-12-31T00:05:18.283Z,75.13
2022-12-31T00:10:18.233Z,75.21
2022-12-31T00:15:18.123Z,75.25
2022-12-31T00:20:18.072Z,75.37
2022-12-31T00:25:18.010Z,75.48
2022-12-31T00:30:17.943Z,75.42
2022-12-31T00:35:17.860Z,75.51
2022-12-31T00:40:17.848Z,75.58
2022-12-31T00:45:17.738Z,75.76
2022-12-31T00:50:17.675Z,75.71
2022-12-31T00:55:17.575Z,75.86
2022-12-31T01:00:17.558Z,75.77
2022-12-31T01:05:17.459Z,75.79
2022-12-31T01:10:17.420Z,75.78
2022-12-31T01:15:17.326Z,75.86
2022-12-31T01:20:17.300Z,75.96
2022-12-31T01:25:17.184Z,76.36
2022-12-31T01:30:17.140Z,76.34
2022-12-31T01:35:17.068Z,76.43
2022-12-31T01:40:17.024Z,76.49
2022-12-31T01:45:16.910Z,76.66
2022-12-31T01:50:16.871Z,76.73
2022-12-31T01:55:16.791Z,76.86
2022-12-31T02:00:16.772Z,76.92
2022-12-31T02:05:16.669Z,76.94
2022-12-31T02:10:16.608Z,77.05
2022-12-31T02:15:16.524Z,76.96
2022-12-31T02:20:16.484Z,77.05
2022-12-31T02:25:16.399Z,76.88
2022-12-31T02:30:16.400Z,76.80
2022-12-31T02:35:16.249Z,76.75
2022-12-31T02:40:16.207Z,76.70
2022-12-31T02:45:16.129Z,76.62
2022-12-31T02:50:16.109Z,76.64
2022-12-31T02:55:16.000Z,76.59
2022-12-31T03:00:15.953Z,76.58
2022-12-31T03:05:15.862Z,76.53
2022-12-31T03:10:15.825Z,76.48
2022-12-31T03:15:15.746Z,76.41
2022-12-31T03:20:15.683Z,76.39
2022-12-31T03:25:15.649Z,76.37
2022-12-31T03:30:15.530Z,76.27
2022-12-31T03:35:15.466Z,76.19
2022-12-31T03:40:15.417Z,76.17
2022-12-31T03:45:15.360Z,76.10
2022-12-31T03:50:15.276Z,76.14
2022-12-31T03:55:15.202Z,76.18
2022-12-31T04:00:15.177Z,76.18
2022-12-31T04:05:15.064Z,76.22
2022-12-31T04:10:15.037Z,76.16
2022-12-31T04:15:14.928Z,76.12
2022-12-31T04:20:14.877Z,76.01
2022-12-31T04:25:14.800Z,75.88
2022-12-31T04:30:14.782Z,75.83
2022-12-31T04:35:14.690Z,75.77
2022-12-31T04:40:14.622Z,75.74
2022-12-31T04:45:14.529Z,75.72
2022-12-31T04:50:14.509Z,75.71
2022-12-31T04:55:14.441Z,75.67
2022-12-31T05:00:14.358Z,75.59
2022-12-31T05:05:14.256Z,75.56
2022-12-31T05:10:14.231Z,75.60
2022-12-31T05:15:14.160Z,75.57
2022-12-31T05:20:14.106Z,75.54
2022-12-31T05:25:14.019Z,75.50
2022-12-31T05:30:13.972Z,75.50
2022-12-31T05:35:13.868Z,75.52
2022-12-31T05:40:13.814Z,75.49
2022-12-31T05:45:13.748Z,75.49
2022-12-31T05:50:13.665Z,75.49
2022-12-31T05:55:13.621Z,75.46
2022-12-31T06:00:13.570Z,75.46
2022-12-31T06:05:13.461Z,75.42
2022-12-31T06:10:13.432Z,75.35
2022-12-31T06:15:13.353Z,75.23
2022-12-31T06:20:13.547Z,75.12
2022-12-31T06:25:13.200Z,75.02
2022-12-31T06:30:13.164Z,74.96
2022-12-31T06:35:13.087Z,74.87
2022-12-31T06:40:13.042Z,74.75
2022-12-31T06:45:12.942Z,74.62
2022-12-31T06:50:12.899Z,74.44
2022-12-31T06:55:12.789Z,74.29
2022-12-31T07:00:12.755Z,74.14
2022-12-31T07:05:12.682Z,74.10
2022-12-31T07:10:12.635Z,74.02
2022-12-31T07:15:12.542Z,73.86
2022-12-31T07:20:12.508Z,73.68
2022-12-31T07:25:12.407Z,73.59
2022-12-31T07:30:12.393Z,73.40
2022-12-31T07:35:12.338Z,73.37
2022-12-31T07:40:12.226Z,73.22
2022-12-31T07:45:12.145Z,73.17
2022-12-31T07:50:12.098Z,73.15
2022-12-31T07:55:12.023Z,73.06
2022-12-31T08:00:11.974Z,72.84
2022-12-31T08:05:11.897Z,72.73
2022-12-31T08:10:17.518Z,72.60
2022-12-31T08:15:12.756Z,72.34
2022-12-31T08:20:11.685Z,72.18
2022-12-31T08:25:11.621Z,72.22
2022-12-31T08:30:11.599Z,72.10
2022-12-31T08:35:11.462Z,72.01
2022-12-31T08:40:11.427Z,71.91
2022-12-31T08:45:11.381Z,71.75
2022-12-31T08:50:11.295Z,71.68
2022-12-31T08:55:11.211Z,71.68
2022-12-31T09:00:11.184Z,71.60
2022-12-31T09:05:11.096Z,71.39
2022-12-31T09:10:11.037Z,71.40
2022-12-31T09:15:10.968Z,71.20
2022-12-31T09:20:10.931Z,71.13
2022-12-31T09:25:10.822Z,70.93
2022-12-31T09:30:10.800Z,70.54
2022-12-31T09:35:10.695Z,70.14
2022-12-31T09:40:10.643Z,69.19
2022-12-31T09:45:10.562Z,68.31
2022-12-31T09:50:10.522Z,66.87
2022-12-31T09:55:10.450Z,63.72
2022-12-31T10:00:10.354Z,62.18
2022-12-31T10:05:10.307Z,59.30
2022-12-31T10:10:10.262Z,58.03
2022-12-31T10:15:10.152Z,58.10
2022-12-31T10:20:10.108Z,59.43
2022-12-31T10:25:10.025Z,58.19
2022-12-31T10:30:10.242Z,59.16
2022-12-31T10:35:09.884Z,61.30
2022-12-31T10:40:09.845Z,62.40
2022-12-31T10:45:09.763Z,62.86
2022-12-31T10:50:09.691Z,62.60
2022-12-31T10:55:09.650Z,62.68
2022-12-31T11:00:09.591Z,62.98
2022-12-31T11:05:09.503Z,63.13
2022-12-31T11:10:09.465Z,62.89
2022-12-31T11:15:09.355Z,62.94
2022-12-31T11:20:09.304Z,63.37
2022-12-31T11:25:09.231Z,63.61
2022-12-31T11:30:09.178Z,63.54
2022-12-31T11:35:09.079Z,63.76
2022-12-31T11:40:09.041Z,63.75
2022-12-31T11:45:08.972Z,63.71
2022-12-31T11:50:08.888Z,63.06
2022-12-31T11:55:08.826Z,62.60
2022-12-31T12:00:08.777Z,61.86
2022-12-31T12:05:11.359Z,61.16
2022-12-31T12:10:08.639Z,61.33
2022-12-31T12:15:09.362Z,61.29
2022-12-31T12:20:08.518Z,60.49
2022-12-31T12:25:08.423Z,59.41
2022-12-31T12:30:08.395Z,59.06
2022-12-31T12:35:08.360Z,59.03
2022-12-31T12:40:08.268Z,59.05
2022-12-31T12:45:08.174Z,58.93
2022-12-31T12:50:08.110Z,58.98
2022-12-31T12:55:08.010Z,59.31
2022-12-31T13:00:07.993Z,59.02
2022-12-31T13:05:07.933Z,58.51
2022-12-31T13:10:07.866Z,58.94
2022-12-31T13:15:07.754Z,59.32
2022-12-31T13:20:07.725Z,59.19
2022-12-31T13:25:07.680Z,59.17
2022-12-31T13:30:07.721Z,59.04
2022-12-31T13:35:07.623Z,59.01
2022-12-31T13:40:07.599Z,58.92
2022-12-31T13:45:07.419Z,58.36
2022-12-31T13:50:12.610Z,58.20
2022-12-31T13:55:08.247Z,58.23
2022-12-31T14:00:07.231Z,58.71
2022-12-31T14:05:07.120Z,59.16
2022-12-31T14:10:07.056Z,59.45
2022-12-31T14:15:07.069Z,59.56
2022-12-31T14:20:06.902Z,59.97
2022-12-31T14:25:06.861Z,60.50
2022-12-31T14:30:06.755Z,60.67
2022-12-31T14:35:06.710Z,61.09
2022-12-31T14:40:06.686Z,61.31
2022-12-31T14:45:06.597Z,61.69
2022-12-31T14:50:06.503Z,62.02
2022-12-31T14:55:07.168Z,62.22
2022-12-31T15:00:06.363Z,62.38
2022-12-31T15:05:06.327Z,62.50
2022-12-31T15:10:06.257Z,62.67
2022-12-31T15:15:06.190Z,62.92
2022-12-31T15:20:10.110Z,63.20
2022-12-31T15:25:07.072Z,63.35
2022-12-31T15:30:05.968Z,63.54
2022-12-31T15:35:05.951Z,63.73
2022-12-31T15:40:05.831Z,63.91
2022-12-31T15:45:05.782Z,64.05
2022-12-31T15:50:05.706Z,64.19
2022-12-31T15:55:05.672Z,64.28
2022-12-31T16:00:05.576Z,64.37
2022-12-31T16:05:05.626Z,64.40
2022-12-31T16:10:05.453Z,64.40
2022-12-31T16:15:05.417Z,64.40
2022-12-31T16:20:05.331Z,64.44
2022-12-31T16:25:30.560Z,64.48
2022-12-31T16:30:06.223Z,64.51
2022-12-31T16:35:12.049Z,64.56
2022-12-31T16:40:06.058Z,64.62
2022-12-31T16:45:04.996Z,64.69
2022-12-31T16:50:04.907Z,64.75
2022-12-31T16:55:04.877Z,64.79
2022-12-31T17:00:04.798Z,64.85
2022-12-31T17:05:04.719Z,64.90
2022-12-31T17:10:04.662Z,64.93
2022-12-31T17:15:04.592Z,64.96
2022-12-31T17:20:04.490Z,64.97
2022-12-31T17:25:04.526Z,65.03
2022-12-31T17:30:04.385Z,65.05
2022-12-31T17:35:04.339Z,65.07
2022-12-31T17:40:48.806Z,65.10
2022-12-31T17:45:05.221Z,65.08
2022-12-31T17:50:04.122Z,65.13
2022-12-31T17:55:04.062Z,65.10
2022-12-31T18:00:03.984Z,65.08
2022-12-31T18:05:03.928Z,65.04
2022-12-31T18:10:03.867Z,65.00
2022-12-31T18:15:03.814Z,64.88
2022-12-31T18:20:05.217Z,64.87
2022-12-31T18:25:03.676Z,64.90
2022-12-31T18:30:06.088Z,64.89
2022-12-31T18:35:03.553Z,64.90
2022-12-31T18:40:03.456Z,64.88
2022-12-31T18:45:03.422Z,64.77
2022-12-31T18:50:03.348Z,64.72
2022-12-31T18:55:03.268Z,64.60
2022-12-31T19:00:03.207Z,64.50
2022-12-31T19:05:03.175Z,64.44
2022-12-31T19:10:03.057Z,64.40
2022-12-31T19:15:03.027Z,64.32
2022-12-31T19:20:02.934Z,64.28
2022-12-31T19:25:02.899Z,64.21
2022-12-31T19:30:02.833Z,64.23
2022-12-31T19:35:04.103Z,64.23
2022-12-31T19:40:02.661Z,64.17
2022-12-31T19:45:02.659Z,64.11
2022-12-31T19:50:02.544Z,63.80
2022-12-31T19:55:02.482Z,63.61
2022-12-31T20:00:02.426Z,63.54
2022-12-31T20:05:02.355Z,63.35
2022-12-31T20:10:02.273Z,63.31
2022-12-31T20:15:02.218Z,63.27
2022-12-31T20:20:02.178Z,63.04
2022-12-31T20:25:02.902Z,63.00
2022-12-31T20:30:02.013Z,62.94
2022-12-31T20:35:01.993Z,62.94
2022-12-31T20:40:01.871Z,62.91
2022-12-31T20:45:01.831Z,62.73
2022-12-31T20:50:11.406Z,62.75
2022-12-31T20:55:02.696Z,62.69
2022-12-31T21:00:01.615Z,62.77
2022-12-31T21:05:01.740Z,62.86
2022-12-31T21:10:01.461Z,62.89
2022-12-31T21:15:01.494Z,62.94
2022-12-31T21:20:01.328Z,62.98
2022-12-31T21:25:01.302Z,63.04
2022-12-31T21:30:18.123Z,62.99
2022-12-31T21:35:40.370Z,63.06
2022-12-31T21:40:02.049Z,63.16
2022-12-31T21:45:01.056Z,63.27
2022-12-31T21:50:00.924Z,63.34
2022-12-31T21:55:00.893Z,63.31
2022-12-31T22:00:32.094Z,63.31
2022-12-31T22:05:03.093Z,63.49
2022-12-31T22:10:00.671Z,63.69
2022-12-31T22:15:14.490Z,63.81
2022-12-31T22:25:01.476Z,64.08
2022-12-31T22:30:00.407Z,64.22
2022-12-31T22:35:00.352Z,64.35
2022-12-31T22:40:00.290Z,64.41
2022-12-31T22:45:00.216Z,64.46
2022-12-31T22:50:00.155Z,64.55
2022-12-31T22:55:00.113Z,64.61
2022-12-31T22:59:59.996Z,64.64
2022-12-31T23:05:15.742Z,64.70
2022-12-31T23:10:00.879Z,64.72
2022-12-31T23:14:59.812Z,64.75
2022-12-31T23:19:59.736Z,64.77
2022-12-31T23:24:59.680Z,64.71
2022-12-31T23:29:59.603Z,64.65
2022-12-31T23:35:02.235Z,64.59
2022-12-31T23:40:00.483Z,64.57
2022-12-31T23:44:59.405Z,64.55
2022-12-31T23:49:59.336Z,64.56
2022-12-31T23:54:59.284Z,64.52
2022-12-31T23:59:59.232Z,64.53
